createdAt,value
2022-11-28T00:01:50.023Z,100658.44
2022-11-28T00:04:18.459Z,100649.91
2022-11-28T00:06:49.405Z,100659.19
2022-11-28T00:09:19.092Z,100663.91
2022-11-28T00:11:48.738Z,100669.13
2022-11-28T00:14:17.959Z,100668.88
2022-11-28T00:16:46.091Z,100655.53
2022-11-28T00:19:14.572Z,100652.06
2022-11-28T00:21:43.425Z,100659.25
2022-11-28T00:24:12.371Z,100662.16
2022-11-28T00:26:42.466Z,100655.03
2022-11-28T00:29:11.971Z,100665.44
2022-11-28T00:31:51.154Z,100656.84
2022-11-28T00:34:19.118Z,100667.09
2022-11-28T00:36:48.883Z,100670.09
2022-11-28T00:39:17.063Z,100664.59
2022-11-28T00:41:45.359Z,100676.06
2022-11-28T00:44:15.514Z,100661.59
2022-11-28T00:46:44.241Z,100667.19
2022-11-28T00:49:11.900Z,100659.38
2022-11-28T00:51:39.906Z,100671.72
2022-11-28T00:54:08.120Z,100666.41
2022-11-28T00:56:39.497Z,100665.50
2022-11-28T00:59:07.507Z,100664.41
2022-11-28T01:01:37.799Z,100664.84
2022-11-28T01:04:23.728Z,100659.56
2022-11-28T01:06:51.264Z,100662.19
2022-11-28T01:09:23.221Z,100661.25
2022-11-28T01:11:52.693Z,100663.88
2022-11-28T01:14:22.742Z,100651.97
2022-11-28T01:16:50.157Z,100646.81
2022-11-28T01:19:17.825Z,100646.41
2022-11-28T01:21:46.238Z,100657.06
2022-11-28T01:24:14.729Z,100639.00
2022-11-28T01:26:42.715Z,100658.63
2022-11-28T01:29:10.704Z,100655.09
2022-11-28T01:31:38.451Z,100658.66
2022-11-28T01:34:06.028Z,100663.13
2022-11-28T01:36:35.147Z,100658.09
2022-11-28T01:39:02.790Z,100649.31
2022-11-28T01:41:30.521Z,100626.25
2022-11-28T01:44:24.125Z,100632.31
2022-11-28T01:46:51.370Z,100631.22
2022-11-28T01:49:29.993Z,100633.47
2022-11-28T01:52:03.217Z,100630.34
2022-11-28T01:54:33.304Z,100621.88
2022-11-28T01:57:04.733Z,100633.88
2022-11-28T01:59:37.650Z,100630.53
2022-11-28T02:02:09.776Z,100629.38
2022-11-28T02:04:37.706Z,100612.31
2022-11-28T02:07:05.016Z,100622.06
2022-11-28T02:09:32.528Z,100611.53
2022-11-28T02:12:35.249Z,100618.06
2022-11-28T02:15:30.542Z,100614.28
2022-11-28T02:18:19.426Z,100611.84
2022-11-28T02:21:05.316Z,100600.97
2022-11-28T02:23:51.028Z,100604.84
2022-11-28T02:26:29.273Z,100599.75
2022-11-28T02:29:24.661Z,100567.66
2022-11-28T02:32:07.178Z,100600.41
2022-11-28T02:35:02.984Z,100591.41
2022-11-28T02:37:39.701Z,100587.81
2022-11-28T02:40:29.627Z,100581.06
2022-11-28T02:43:15.810Z,100566.56
2022-11-28T02:46:01.535Z,100578.75
2022-11-28T02:48:39.659Z,100581.19
2022-11-28T02:51:15.320Z,100568.16
2022-11-28T02:53:46.009Z,100573.44
2022-11-28T02:56:13.556Z,100568.97
2022-11-28T02:58:41.206Z,100569.63
2022-11-28T03:01:21.557Z,100566.97
2022-11-28T03:04:16.533Z,100566.97
2022-11-28T03:06:49.295Z,100556.03
2022-11-28T03:09:16.896Z,100555.94
2022-11-28T03:12:02.540Z,100549.16
2022-11-28T03:14:40.243Z,100551.16
2022-11-28T03:17:18.843Z,100549.44
2022-11-28T03:20:02.069Z,100543.91
2022-11-28T03:22:44.931Z,100551.91
2022-11-28T03:25:40.982Z,100543.50
2022-11-28T03:28:08.225Z,100555.81
2022-11-28T03:30:58.760Z,100487.84
2022-11-28T03:33:30.108Z,100562.03
2022-11-28T03:36:20.833Z,100544.53
2022-11-28T03:38:54.348Z,100553.25
2022-11-28T03:41:29.781Z,100542.84
2022-11-28T03:43:59.424Z,100564.25
2022-11-28T03:46:35.490Z,100559.38
2022-11-28T03:49:05.264Z,100551.63
2022-11-28T03:52:04.590Z,100553.34
2022-11-28T03:54:37.209Z,100549.94
2022-11-28T03:57:17.727Z,100548.50
2022-11-28T03:59:52.487Z,100549.94
2022-11-28T04:02:51.254Z,100552.50
2022-11-28T04:05:41.937Z,100556.97
2022-11-28T04:08:09.513Z,100553.59
2022-11-28T04:10:43.419Z,100548.50
2022-11-28T04:13:33.107Z,100554.84
2022-11-28T04:16:41.053Z,100547.97
2022-11-28T04:19:25.545Z,100535.63
2022-11-28T04:22:24.736Z,100552.66
2022-11-28T04:24:57.117Z,100547.31
2022-11-28T04:27:30.829Z,100547.53
2022-11-28T04:30:02.659Z,100542.97
2022-11-28T04:32:33.085Z,100540.97
2022-11-28T04:35:07.408Z,100539.88
2022-11-28T04:37:39.946Z,100541.84
2022-11-28T04:40:13.323Z,100535.91
2022-11-28T04:42:52.733Z,100538.72
2022-11-28T04:45:28.904Z,100551.97
2022-11-28T04:47:56.558Z,100547.06
2022-11-28T04:50:30.948Z,100544.53
2022-11-28T04:53:11.996Z,100545.97
2022-11-28T04:55:47.022Z,100550.31
2022-11-28T04:58:20.296Z,100556.00
2022-11-28T05:00:51.858Z,100562.16
2022-11-28T05:03:20.596Z,100558.41
2022-11-28T05:05:50.779Z,100551.06
2022-11-28T05:08:18.812Z,100556.41
2022-11-28T05:10:46.709Z,100562.97
2022-11-28T05:13:14.799Z,100549.66
2022-11-28T05:15:42.294Z,100541.28
2022-11-28T05:18:10.419Z,100547.25
2022-11-28T05:20:38.946Z,100527.78
2022-11-28T05:23:08.858Z,100529.75
2022-11-28T05:25:39.858Z,100513.16
2022-11-28T05:28:07.083Z,100522.09
2022-11-28T05:30:34.608Z,100524.16
2022-11-28T05:33:02.298Z,100499.97
2022-11-28T05:35:29.968Z,100516.69
2022-11-28T05:37:57.245Z,100515.84
2022-11-28T05:40:24.965Z,100511.22
2022-11-28T05:42:52.712Z,100520.28
2022-11-28T05:45:20.244Z,100500.59
2022-11-28T05:47:48.816Z,100517.38
2022-11-28T05:50:17.477Z,100516.81
2022-11-28T05:52:44.698Z,100514.72
2022-11-28T05:55:12.282Z,100520.31
2022-11-28T05:57:39.567Z,100502.28
2022-11-28T06:00:09.774Z,100512.81
2022-11-28T06:02:41.144Z,100507.97
2022-11-28T06:05:34.563Z,100508.44
2022-11-28T06:07:56.276Z,100485.84
2022-11-28T06:10:23.824Z,100504.69
2022-11-28T06:12:51.008Z,100502.03
2022-11-28T06:15:19.602Z,100504.94
2022-11-28T06:17:46.871Z,100491.41
2022-11-28T06:20:14.695Z,100501.78
2022-11-28T06:22:42.409Z,100511.22
2022-11-28T06:25:11.778Z,100499.13
2022-11-28T06:27:39.371Z,100505.69
2022-11-28T06:30:07.888Z,100493.56
2022-11-28T06:32:36.432Z,100505.19
2022-11-28T06:35:04.376Z,100496.84
2022-11-28T06:37:31.655Z,100506.88
2022-11-28T06:39:59.463Z,100504.34
2022-11-28T06:42:26.717Z,100509.28
2022-11-28T06:44:54.929Z,100514.88
2022-11-28T06:47:22.435Z,100513.16
2022-11-28T06:49:51.006Z,100509.78
2022-11-28T06:52:18.801Z,100499.25
2022-11-28T06:54:48.563Z,100502.28
2022-11-28T06:57:16.551Z,100493.81
2022-11-28T06:59:45.321Z,100493.22
2022-11-28T07:02:13.168Z,100495.53
2022-11-28T07:04:41.241Z,100498.78
2022-11-28T07:07:10.686Z,100493.06
2022-11-28T07:09:44.063Z,100483.84
2022-11-28T07:12:11.609Z,100470.50
2022-11-28T07:14:40.735Z,100489.31
2022-11-28T07:17:08.197Z,100483.78
2022-11-28T07:19:38.295Z,100475.16
2022-11-28T07:22:06.905Z,100471.63
2022-11-28T07:24:34.784Z,100482.31
2022-11-28T07:27:02.064Z,100475.84
2022-11-28T07:29:36.369Z,100482.75
2022-11-28T07:32:06.680Z,100484.88
2022-11-28T07:34:35.202Z,100483.66
2022-11-28T07:37:02.364Z,100487.78
2022-11-28T07:39:30.410Z,100480.53
2022-11-28T07:41:58.666Z,100476.88
2022-11-28T07:44:26.531Z,100453.91
2022-11-28T07:46:53.898Z,100479.78
2022-11-28T07:49:21.393Z,100482.44
2022-11-28T07:51:48.633Z,100466.84
2022-11-28T07:54:16.152Z,100458.81
2022-11-28T07:59:31.061Z,100454.09
2022-11-28T08:01:58.391Z,100439.50
2022-11-28T08:04:26.042Z,100445.97
2022-11-28T08:06:53.415Z,100449.06
2022-11-28T08:09:20.958Z,100444.25
2022-11-28T08:11:52.573Z,100450.03
2022-11-28T08:14:20.489Z,100434.03
2022-11-28T08:16:47.740Z,100433.03
2022-11-28T08:19:15.955Z,100431.09
2022-11-28T08:21:43.420Z,100430.25
2022-11-28T08:24:11.474Z,100438.84
2022-11-28T08:26:39.127Z,100433.03
2022-11-28T08:29:06.747Z,100434.88
2022-11-28T08:31:36.948Z,100441.34
2022-11-28T08:34:10.185Z,100430.25
2022-11-28T08:36:37.683Z,100443.72
2022-11-28T08:41:58.736Z,100444.78
2022-11-28T08:44:47.953Z,100450.91
2022-11-28T08:47:15.851Z,100463.34
2022-11-28T08:49:46.534Z,100458.00
2022-11-28T08:52:15.714Z,100469.72
2022-11-28T08:54:47.235Z,100474.94
2022-11-28T08:57:15.726Z,100473.91
2022-11-28T08:59:44.781Z,100473.00
2022-11-28T09:02:14.129Z,100480.06
2022-11-28T09:04:51.546Z,100472.19
2022-11-28T09:07:24.739Z,100482.44
2022-11-28T09:09:53.301Z,100491.84
2022-11-28T09:12:20.619Z,100481.69
2022-11-28T09:14:48.527Z,100481.72
2022-11-28T09:17:17.728Z,100483.72
2022-11-28T09:19:49.967Z,100471.59
2022-11-28T09:22:21.585Z,100469.44
2022-11-28T09:24:59.214Z,100468.72
2022-11-28T09:27:26.600Z,100474.88
2022-11-28T09:29:54.989Z,100475.09
2022-11-28T09:32:22.279Z,100472.78
2022-11-28T09:34:51.322Z,100479.94
2022-11-28T09:37:19.026Z,100476.84
2022-11-28T09:40:11.401Z,100469.78
2022-11-28T09:42:54.127Z,100471.72
2022-11-28T09:45:23.795Z,100460.53
2022-11-28T09:47:55.139Z,100454.28
2022-11-28T09:50:26.017Z,100458.22
2022-11-28T09:53:02.673Z,100452.75
2022-11-28T09:55:48.782Z,100439.31
2022-11-28T09:58:33.742Z,100450.28
2022-11-28T10:01:01.617Z,100444.53
2022-11-28T10:03:39.381Z,100441.72
2022-11-28T10:06:13.010Z,100435.34
2022-11-28T10:09:10.611Z,100431.03
2022-11-28T10:12:20.734Z,100427.47
2022-11-28T10:15:13.597Z,100429.09
2022-11-28T10:17:51.586Z,100429.88
2022-11-28T10:20:25.900Z,100440.75
2022-11-28T10:22:59.174Z,100428.09
2022-11-28T10:25:34.420Z,100434.53
2022-11-28T10:28:22.668Z,100435.94
2022-11-28T10:31:13.088Z,100436.47
2022-11-28T10:33:55.469Z,100434.69
2022-11-28T10:36:31.411Z,100424.88
2022-11-28T10:39:09.981Z,100413.09
2022-11-28T10:42:11.698Z,100431.97
2022-11-28T10:44:52.991Z,100409.16
2022-11-28T10:47:45.647Z,100409.66
2022-11-28T10:50:36.423Z,100420.09
2022-11-28T10:53:20.868Z,100410.69
2022-11-28T10:56:16.334Z,100409.81
2022-11-28T10:58:52.573Z,100414.25
2022-11-28T11:01:20.237Z,100404.41
2022-11-28T11:03:48.445Z,100404.34
2022-11-28T11:06:17.014Z,100402.13
2022-11-28T11:08:47.846Z,100392.19
2022-11-28T11:11:28.013Z,100409.75
2022-11-28T11:14:08.947Z,100396.34
2022-11-28T11:17:02.074Z,100400.28
2022-11-28T11:19:40.368Z,100389.03
2022-11-28T11:22:22.708Z,100385.44
2022-11-28T11:25:15.620Z,100383.88
2022-11-28T11:27:58.704Z,100374.53
2022-11-28T11:30:35.124Z,100383.56
2022-11-28T11:33:06.781Z,100374.72
2022-11-28T11:35:55.782Z,100378.22
2022-11-28T11:38:37.547Z,100371.31
2022-11-28T11:41:30.936Z,100372.06
2022-11-28T11:44:15.883Z,100366.00
2022-11-28T11:46:55.613Z,100366.25
2022-11-28T11:49:45.926Z,100367.00
2022-11-28T11:52:24.214Z,100361.63
2022-11-28T11:55:02.422Z,100363.72
2022-11-28T11:57:44.511Z,100362.41
2022-11-28T12:00:21.085Z,100361.47
2022-11-28T12:03:29.833Z,100360.22
2022-11-28T12:06:20.164Z,100361.91
2022-11-28T12:09:00.285Z,100358.94
2022-11-28T12:11:34.051Z,100358.28
2022-11-28T12:14:31.722Z,100359.28
2022-11-28T12:17:14.306Z,100351.81
2022-11-28T12:20:10.556Z,100355.09
2022-11-28T12:22:56.740Z,100349.69
2022-11-28T12:25:42.747Z,100344.69
2022-11-28T12:28:37.921Z,100345.09
2022-11-28T12:31:08.548Z,100321.38
2022-11-28T12:33:55.151Z,100335.09
2022-11-28T12:36:29.000Z,100329.69
2022-11-28T12:39:04.511Z,100336.78
2022-11-28T12:41:32.831Z,100339.94
2022-11-28T12:44:26.472Z,100336.34
2022-11-28T12:47:19.788Z,100343.50
2022-11-28T12:50:11.771Z,100335.19
2022-11-28T12:52:47.894Z,100330.84
2022-11-28T12:55:44.977Z,100334.94
2022-11-28T12:58:18.394Z,100329.75
2022-11-28T13:01:12.839Z,100326.31
2022-11-28T13:04:10.813Z,100331.78
2022-11-28T13:06:52.952Z,100326.59
2022-11-28T13:09:33.914Z,100326.75
2022-11-28T13:12:21.428Z,100319.66
2022-11-28T13:15:07.424Z,100320.03
2022-11-28T13:17:53.849Z,100317.13
2022-11-28T13:20:42.312Z,100320.34
2022-11-28T13:23:44.041Z,100322.94
2022-11-28T13:26:21.866Z,100322.78
2022-11-28T13:29:24.724Z,100326.72
2022-11-28T13:32:02.468Z,100327.97
2022-11-28T13:34:31.432Z,100329.03
2022-11-28T13:40:17.890Z,100322.63
2022-11-28T13:43:08.761Z,100333.75
2022-11-28T13:45:41.561Z,100322.38
2022-11-28T13:48:57.573Z,100326.56
2022-11-28T13:51:31.454Z,100323.13
2022-11-28T13:54:20.465Z,100313.97
2022-11-28T13:57:32.566Z,100306.16
2022-11-28T14:00:10.405Z,100315.44
2022-11-28T14:02:50.792Z,100319.75
2022-11-28T14:05:28.049Z,100320.44
2022-11-28T14:07:57.080Z,100312.44
2022-11-28T14:10:35.475Z,100315.84
2022-11-28T14:13:31.373Z,100302.00
2022-11-28T14:16:38.381Z,100311.69
2022-11-28T14:19:17.922Z,100314.84
2022-11-28T14:22:03.550Z,100317.00
2022-11-28T14:25:02.117Z,100316.38
2022-11-28T14:27:33.811Z,100317.06
2022-11-28T14:30:46.977Z,100314.84
2022-11-28T14:33:39.623Z,100312.06
2022-11-28T14:36:29.734Z,100315.41
2022-11-28T14:39:03.082Z,100312.63
2022-11-28T14:41:31.836Z,100316.53
2022-11-28T14:44:37.689Z,100310.50
2022-11-28T14:47:14.438Z,100305.31
2022-11-28T14:49:42.374Z,100311.41
2022-11-28T14:55:12.596Z,100305.59
2022-11-28T14:57:53.728Z,100305.34
2022-11-28T15:00:24.372Z,100318.66
2022-11-28T15:03:13.988Z,100309.66
2022-11-28T15:06:15.158Z,100297.41
2022-11-28T15:09:00.325Z,100308.59
2022-11-28T15:11:58.680Z,100304.44
2022-11-28T15:14:29.534Z,100308.34
2022-11-28T15:17:01.463Z,100296.56
2022-11-28T15:19:39.238Z,100293.88
2022-11-28T15:22:31.989Z,100302.22
2022-11-28T15:25:00.242Z,100301.28
2022-11-28T15:27:30.061Z,100303.13
2022-11-28T15:30:00.785Z,100307.19
2022-11-28T15:32:31.522Z,100298.66
2022-11-28T15:35:12.495Z,100293.75
2022-11-28T15:37:49.291Z,100298.28
2022-11-28T15:40:21.478Z,100283.97
2022-11-28T15:42:49.891Z,100302.56
2022-11-28T15:45:29.076Z,100296.19
2022-11-28T15:48:00.282Z,100298.03
2022-11-28T15:50:32.248Z,100300.03
2022-11-28T15:53:04.943Z,100301.41
2022-11-28T15:55:34.099Z,100296.06
2022-11-28T15:58:21.160Z,100294.09
2022-11-28T16:00:56.760Z,100300.88
2022-11-28T16:03:54.188Z,100273.06
2022-11-28T16:06:24.985Z,100300.88
2022-11-28T16:08:59.164Z,100307.06
2022-11-28T16:11:30.958Z,100291.03
2022-11-28T16:14:02.103Z,100298.34
2022-11-28T16:16:33.347Z,100299.91
2022-11-28T16:19:06.286Z,100295.69
2022-11-28T16:21:50.935Z,100293.03
2022-11-28T16:24:38.563Z,100282.06
2022-11-28T16:27:28.889Z,100290.63
2022-11-28T16:29:56.450Z,100288.22
2022-11-28T16:32:38.975Z,100298.09
2022-11-28T16:35:12.562Z,100270.25
2022-11-28T16:37:40.244Z,100283.34
2022-11-28T16:40:19.896Z,100278.69
2022-11-28T16:42:55.102Z,100266.88
2022-11-28T16:45:30.935Z,100280.38
2022-11-28T16:48:17.366Z,100279.25
2022-11-28T16:51:03.028Z,100281.22
2022-11-28T16:54:21.304Z,100285.56
2022-11-28T16:56:48.577Z,100279.13
2022-11-28T16:59:19.260Z,100278.13
2022-11-28T17:01:51.511Z,100279.66
2022-11-28T17:04:28.026Z,100277.56
2022-11-28T17:06:57.921Z,100261.94
2022-11-28T17:09:25.470Z,100283.19
2022-11-28T17:12:27.491Z,100279.94
2022-11-28T17:14:56.182Z,100278.41
2022-11-28T17:17:25.090Z,100280.19
2022-11-28T17:19:52.644Z,100284.72
2022-11-28T17:22:40.389Z,100284.69
2022-11-28T17:25:20.835Z,100301.69
2022-11-28T17:27:50.980Z,100277.66
2022-11-28T17:30:19.652Z,100289.59
2022-11-28T17:32:48.173Z,100281.44
2022-11-28T17:35:42.269Z,100282.41
2022-11-28T17:38:09.487Z,100271.00
2022-11-28T17:40:38.803Z,100281.00
2022-11-28T17:43:07.582Z,100279.06
2022-11-28T17:45:36.152Z,100273.84
2022-11-28T17:48:03.742Z,100280.56
2022-11-28T17:50:31.416Z,100269.66
2022-11-28T17:52:59.360Z,100267.81
2022-11-28T17:55:29.596Z,100262.63
2022-11-28T17:57:56.824Z,100259.81
2022-11-28T18:00:24.546Z,100260.66
2022-11-28T18:02:52.733Z,100257.84
2022-11-28T18:05:21.042Z,100255.16
2022-11-28T18:07:48.384Z,100252.78
2022-11-28T18:10:15.973Z,100258.97
2022-11-28T18:12:43.424Z,100260.38
2022-11-28T18:15:11.139Z,100263.59
2022-11-28T18:17:38.877Z,100261.75
2022-11-28T18:20:11.331Z,100259.09
2022-11-28T18:22:38.761Z,100259.94
2022-11-28T18:25:08.376Z,100251.94
2022-11-28T18:27:35.693Z,100261.47
2022-11-28T18:30:04.165Z,100258.78
2022-11-28T18:32:32.709Z,100260.06
2022-11-28T18:35:00.626Z,100262.16
2022-11-28T18:37:28.104Z,100261.75
2022-11-28T18:39:55.697Z,100247.97
2022-11-28T18:42:24.736Z,100268.06
2022-11-28T18:44:53.082Z,100262.31
2022-11-28T18:47:20.320Z,100267.34
2022-11-28T18:49:48.779Z,100264.25
2022-11-28T18:52:16.478Z,100266.50
2022-11-28T18:54:46.880Z,100262.25
2022-11-28T18:57:14.610Z,100266.22
2022-11-28T18:59:47.166Z,100258.09
2022-11-28T19:02:18.773Z,100273.81
2022-11-28T19:04:50.789Z,100272.13
2022-11-28T19:07:18.235Z,100271.44
2022-11-28T19:09:46.423Z,100265.97
2022-11-28T19:12:15.035Z,100263.72
2022-11-28T19:14:42.566Z,100257.50
2022-11-28T19:17:12.747Z,100257.94
2022-11-28T19:19:44.279Z,100261.16
2022-11-28T19:22:12.009Z,100256.78
2022-11-28T19:24:40.200Z,100270.31
2022-11-28T19:27:13.834Z,100254.69
2022-11-28T19:29:43.261Z,100257.78
2022-11-28T19:32:10.983Z,100254.69
2022-11-28T19:34:38.645Z,100252.97
2022-11-28T19:37:06.301Z,100247.38
2022-11-28T19:39:33.983Z,100248.38
2022-11-28T19:42:01.276Z,100244.00
2022-11-28T19:44:29.842Z,100249.63
2022-11-28T19:46:58.104Z,100251.28
2022-11-28T19:49:25.932Z,100249.63
2022-11-28T19:51:54.662Z,100250.88
2022-11-28T19:54:24.706Z,100246.50
2022-11-28T19:56:56.048Z,100250.16
2022-11-28T19:59:24.011Z,100253.13
2022-11-28T20:01:53.966Z,100246.22
2022-11-28T20:04:22.970Z,100238.78
2022-11-28T20:06:50.297Z,100247.66
2022-11-28T20:09:18.435Z,100237.53
2022-11-28T20:11:48.733Z,100238.97
2022-11-28T20:14:18.593Z,100244.81
2022-11-28T20:16:46.865Z,100240.88
2022-11-28T20:19:16.446Z,100227.69
2022-11-28T20:21:49.464Z,100231.19
2022-11-28T20:24:17.666Z,100227.38
2022-11-28T20:26:48.253Z,100218.91
2022-11-28T20:29:17.808Z,100227.94
2022-11-28T20:31:47.770Z,100224.28
2022-11-28T20:34:18.948Z,100233.16
2022-11-28T20:36:53.295Z,100234.44
2022-11-28T20:39:21.680Z,100226.97
2022-11-28T20:41:48.989Z,100229.63
2022-11-28T20:44:19.074Z,100220.13
2022-11-28T20:46:49.937Z,100213.19
2022-11-28T20:49:17.858Z,100222.72
2022-11-28T20:51:45.462Z,100235.25
2022-11-28T20:54:14.684Z,100244.06
2022-11-28T20:57:19.006Z,100233.97
2022-11-28T20:59:33.181Z,100239.03
2022-11-28T21:02:04.423Z,100230.19
2022-11-28T21:04:35.624Z,100232.13
2022-11-28T21:07:03.840Z,100223.31
2022-11-28T21:09:37.841Z,100229.91
2022-11-28T21:12:06.219Z,100230.31
2022-11-28T21:14:34.091Z,100222.34
2022-11-28T21:17:01.551Z,100226.81
2022-11-28T21:19:29.150Z,100217.84
2022-11-28T21:21:57.659Z,100219.25
2022-11-28T21:24:25.414Z,100218.81
2022-11-28T21:26:54.271Z,100212.50
2022-11-28T21:29:23.974Z,100217.66
2022-11-28T21:31:51.565Z,100216.41
2022-11-28T21:34:22.504Z,100214.34
2022-11-28T21:36:49.870Z,100219.47
2022-11-28T21:39:20.330Z,100227.91
2022-11-28T21:41:48.378Z,100217.81
2022-11-28T21:44:16.119Z,100215.00
2022-11-28T21:46:44.186Z,100208.41
2022-11-28T21:49:13.008Z,100205.13
2022-11-28T21:51:40.897Z,100214.56
2022-11-28T21:54:11.191Z,100219.16
2022-11-28T21:56:39.265Z,100221.41
2022-11-28T21:59:07.051Z,100222.75
2022-11-28T22:01:34.846Z,100228.41
2022-11-28T22:04:05.967Z,100227.22
2022-11-28T22:06:33.734Z,100228.41
2022-11-28T22:09:09.097Z,100226.19
2022-11-28T22:11:37.341Z,100226.19
2022-11-28T22:14:05.211Z,100221.56
2022-11-28T22:16:32.993Z,100222.53
2022-11-28T22:19:01.231Z,100222.81
2022-11-28T22:24:17.926Z,100220.59
2022-11-28T22:26:45.175Z,100224.25
2022-11-28T22:29:14.171Z,100222.97
2022-11-28T22:31:42.994Z,100226.47
2022-11-28T22:34:12.353Z,100221.56
2022-11-28T22:36:40.336Z,100225.66
2022-11-28T22:39:10.532Z,100219.75
2022-11-28T22:41:39.199Z,100215.34
2022-11-28T22:44:07.152Z,100215.28
2022-11-28T22:46:34.349Z,100222.38
2022-11-28T22:49:04.216Z,100210.28
2022-11-28T22:51:32.053Z,100210.56
2022-11-28T22:54:02.445Z,100228.41
2022-11-28T22:56:31.591Z,100205.66
2022-11-28T22:59:04.916Z,100203.72
2022-11-28T23:01:34.619Z,100204.69
2022-11-28T23:04:02.389Z,100206.69
2022-11-28T23:06:32.769Z,100192.94
2022-11-28T23:09:02.078Z,100194.03
2022-11-28T23:11:32.865Z,100196.00
2022-11-28T23:14:01.572Z,100194.91
2022-11-28T23:16:32.325Z,100174.38
2022-11-28T23:19:02.611Z,100179.16
2022-11-28T23:21:33.482Z,100183.50
2022-11-28T23:24:01.583Z,100186.34
2022-11-28T23:26:31.315Z,100180.19
2022-11-28T23:29:00.906Z,100173.59
2022-11-28T23:31:30.737Z,100184.94
2022-11-28T23:33:59.248Z,100187.19
2022-11-28T23:36:31.138Z,100176.81
2022-11-28T23:39:01.991Z,100180.31
2022-11-28T23:41:29.946Z,100170.91
2022-11-28T23:46:48.319Z,100175.38
2022-11-28T23:49:17.009Z,100183.38
2022-11-28T23:51:44.269Z,100172.69
2022-11-28T23:54:12.392Z,100175.06
2022-11-28T23:56:41.610Z,100168.06
2022-11-28T23:59:11.025Z,100165.53
